Time;durP1;ratioP1;P1;durP2;ratioP2;P2;SDS_P1;SDS_P2;PMS_P1;PMS_P2;Temp;Humidity;BMP_temperature;BMP_pressure;BME280_temperature;BME280_humidity;BME280_pressure;Samples;Min_cycle;Max_cycle;Signal;HPM_P1;HPM_P2
2021/12/07 00:01:18;;;;;;;23.45;18.27;;;;;;;4.70;67.30;100447.25;5179373;28;20773;-42
2021/12/07 00:03:52;;;;;;;25.80;19.42;;;;;;;4.71;67.16;100467.25;5181418;28;20431;-43
2021/12/07 00:06:26;;;;;;;32.83;21.88;;;;;;;4.69;67.33;100460.47;5179566;28;20419;-41
2021/12/07 00:08:59;;;;;;;28.55;20.95;;;;;;;4.73;67.34;100469.72;5175451;28;20526;-43
2021/12/07 00:11:32;;;;;;;25.83;21.00;;;;;;;4.75;67.45;100470.44;5185491;28;20421;-41
2021/12/07 00:14:12;;;;;;;30.23;21.17;;;;;;;4.74;67.42;100481.84;5191444;28;20421;-45
2021/12/07 00:16:46;;;;;;;29.13;21.30;;;;;;;4.78;67.43;100470.22;5173127;28;20773;-44
2021/12/07 00:19:18;;;;;;;27.48;20.58;;;;;;;4.80;67.44;100463.91;5187867;28;20411;-41
2021/12/07 00:21:53;;;;;;;33.50;21.83;;;;;;;4.80;67.43;100477.00;5169035;28;20781;-47
2021/12/07 00:24:25;;;;;;;32.90;22.00;;;;;;;4.62;67.39;100444.44;5178657;28;20414;-47
2021/12/07 00:26:58;;;;;;;33.17;22.53;;;;;;;4.78;67.60;100472.81;5181795;28;20474;-42
2021/12/07 00:29:31;;;;;;;35.67;22.27;;;;;;;4.75;67.66;100471.28;5180129;28;20407;-42
2021/12/07 00:32:18;;;;;;;29.58;21.08;;;;;;;4.78;67.39;100480.69;5174619;28;20409;-43
2021/12/07 00:35:20;;;;;;;25.42;20.70;;;;;;;4.77;67.49;100479.84;5174070;28;20412;-46
2021/12/07 00:37:59;;;;;;;35.33;22.40;;;;;;;4.80;67.36;100489.22;5167712;28;20412;-43
2021/12/07 00:40:32;;;;;;;32.20;23.25;;;;;;;4.80;67.32;100482.22;5178905;28;20427;-41
2021/12/07 00:43:04;;;;;;;34.17;21.30;;;;;;;4.83;67.26;100492.44;5183872;28;20921;-41
2021/12/07 00:45:38;;;;;;;34.67;24.05;;;;;;;4.56;67.20;100461.44;5170662;28;20722;-41
2021/12/07 00:48:10;;;;;;;33.45;22.58;;;;;;;4.87;67.27;100493.03;5168853;28;21164;-42
2021/12/07 00:50:46;;;;;;;30.90;21.55;;;;;;;4.90;67.41;100500.63;5169617;28;20496;-40
2021/12/07 00:53:20;;;;;;;33.60;21.98;;;;;;;4.93;67.12;100505.63;5173391;28;20423;-42
2021/12/07 00:55:57;;;;;;;41.45;23.42;;;;;;;4.95;67.12;100503.69;5175930;28;20443;-41
2021/12/07 00:58:31;;;;;;;41.35;23.30;;;;;;;5.01;67.30;100518.91;5175262;28;20432;-43
2021/12/07 01:01:08;;;;;;;39.58;22.13;;;;;;;5.06;67.28;100522.00;5168844;28;20421;-43
2021/12/07 01:03:42;;;;;;;50.30;22.77;;;;;;;5.09;67.35;100520.94;5185614;28;20430;-46
2021/12/07 01:06:22;;;;;;;36.05;20.75;;;;;;;5.16;67.31;100519.50;5175498;28;20402;-41
2021/12/07 01:09:08;;;;;;;44.05;20.55;;;;;;;5.24;67.11;100518.88;5179957;28;20803;-41
2021/12/07 01:26:06;;;;;;;21.70;8.70;;;;;;;5.72;67.28;100539.44;5173831;28;20407;-42
2021/12/07 01:28:43;;;;;;;27.70;7.47;;;;;;;5.72;67.36;100528.94;5174611;28;20417;-41
2021/12/07 01:31:21;;;;;;;32.10;6.80;;;;;;;5.91;67.17;100550.03;5167909;28;20429;-42
2021/12/07 01:37:02;;;;;;;30.30;6.47;;;;;;;6.06;67.11;100557.66;5181217;28;20917;-43
2021/12/07 01:39:55;;;;;;;23.43;6.33;;;;;;;6.10;67.11;100561.66;5181326;28;20517;-40
2021/12/07 01:45:57;;;;;;;17.02;6.05;;;;;;;6.13;67.30;100585.00;5101939;28;20414;-41
2021/12/07 01:51:45;;;;;;;27.27;6.70;;;;;;;6.15;67.15;100586.53;5160157;28;20427;-40
2021/12/07 02:00:05;;;;;;;27.67;6.18;;;;;;;6.20;67.29;100588.81;5187465;28;20419;-41
2021/12/07 02:02:38;;;;;;;33.05;7.65;;;;;;;6.26;67.33;100593.53;5181825;28;20744;-41
2021/12/07 02:05:11;;;;;;;21.47;5.87;;;;;;;6.32;67.26;100603.50;5183232;28;20476;-44
2021/12/07 02:07:44;;;;;;;22.15;6.32;;;;;;;6.06;67.38;100552.41;5166253;28;20905;-45
2021/12/07 02:10:21;;;;;;;23.20;5.47;;;;;;;6.44;67.24;100612.13;5177473;28;20415;-41
2021/12/07 02:13:01;;;;;;;17.05;5.45;;;;;;;6.49;67.19;100627.50;5179358;28;20427;-42
2021/12/07 02:15:35;;;;;;;28.77;6.35;;;;;;;6.52;67.32;100622.00;5181955;28;20422;-41
2021/12/07 02:18:07;;;;;;;25.50;4.80;;;;;;;6.55;67.34;100627.81;5181421;28;20908;-42
2021/12/07 02:20:40;;;;;;;21.73;5.50;;;;;;;6.57;67.28;100630.31;5175966;28;20417;-41
2021/12/07 02:23:14;;;;;;;31.48;5.72;;;;;;;6.58;67.24;100626.72;5183246;28;20508;-44
2021/12/07 02:25:47;;;;;;;25.13;5.45;;;;;;;6.57;67.34;100631.16;5182676;28;20441;-42
2021/12/07 02:28:21;;;;;;;18.33;4.82;;;;;;;6.57;67.26;100636.41;5180466;28;20408;-42
2021/12/07 02:30:54;;;;;;;19.35;4.95;;;;;;;6.57;67.18;100640.81;5182222;28;20932;-42
2021/12/07 02:33:28;;;;;;;19.83;5.38;;;;;;;6.58;67.21;100639.84;5181050;28;20450;-41
2021/12/07 02:36:01;;;;;;;16.80;4.55;;;;;;;6.63;67.23;100649.00;5180752;28;20515;-42
2021/12/07 02:38:35;;;;;;;18.13;4.13;;;;;;;6.66;67.17;100645.28;5179751;28;23460;-42
2021/12/07 02:41:08;;;;;;;20.03;5.10;;;;;;;6.61;67.16;100631.72;5174660;28;20486;-42
2021/12/07 02:43:40;;;;;;;19.90;4.43;;;;;;;6.68;67.28;100648.59;5179967;28;20422;-41
2021/12/07 02:46:13;;;;;;;24.55;4.60;;;;;;;6.70;67.13;100659.81;5177106;28;20723;-42
2021/12/07 02:48:45;;;;;;;18.48;3.72;;;;;;;6.71;67.17;100664.09;5182574;28;20415;-42
2021/12/07 02:51:18;;;;;;;14.95;4.13;;;;;;;6.59;67.17;100654.63;5172614;28;20423;-42
2021/12/07 02:53:51;;;;;;;20.65;4.93;;;;;;;6.59;67.02;100649.38;5175178;28;21447;-41
2021/12/07 02:56:25;;;;;;;20.48;5.18;;;;;;;6.63;67.20;100672.63;5175245;28;20415;-41
2021/12/07 02:59:01;;;;;;;27.77;4.95;;;;;;;6.60;67.06;100677.28;5174068;28;20494;-43
2021/12/07 03:01:42;;;;;;;19.08;4.88;;;;;;;6.58;67.06;100674.78;5148423;28;20423;-42
2021/12/07 03:04:22;;;;;;;18.70;4.43;;;;;;;6.53;67.20;100678.75;5158170;28;20421;-45
2021/12/07 03:07:04;;;;;;;19.00;4.78;;;;;;;6.47;67.19;100674.84;5179758;28;20411;-48
2021/12/07 03:10:14;;;;;;;20.58;4.28;;;;;;;6.48;67.14;100687.00;5141587;28;20765;-42
2021/12/07 03:27:01;;;;;;;18.85;4.68;;;;;;;6.41;67.01;100710.31;5174740;28;20407;-42
2021/12/07 03:29:33;;;;;;;25.45;5.60;;;;;;;6.37;66.96;100703.63;5162628;28;22307;-43
2021/12/07 03:32:07;;;;;;;19.80;4.60;;;;;;;6.45;66.91;100718.75;5168704;28;20417;-44
2021/12/07 03:34:46;;;;;;;24.45;4.50;;;;;;;6.42;66.79;100717.19;5152576;28;20496;-40
2021/12/07 03:37:19;;;;;;;17.75;5.57;;;;;;;6.40;66.95;100716.47;5153520;28;20776;-41
2021/12/07 03:39:51;;;;;;;23.48;6.03;;;;;;;6.37;66.77;100719.34;5176158;28;20431;-41
2021/12/07 03:42:25;;;;;;;22.90;5.18;;;;;;;6.33;66.72;100723.19;5176602;28;20458;-41
2021/12/07 03:44:58;;;;;;;24.77;4.97;;;;;;;6.33;66.72;100722.38;5164200;28;20434;-42
2021/12/07 03:47:31;;;;;;;21.17;5.40;;;;;;;6.30;66.62;100728.69;5164001;28;20467;-42
2021/12/07 03:50:05;;;;;;;25.13;5.50;;;;;;;6.08;66.61;100699.94;5169748;28;21886;-42
2021/12/07 03:52:38;;;;;;;23.00;5.85;;;;;;;6.24;66.71;100727.41;5167357;28;20466;-41
2021/12/07 03:55:11;;;;;;;26.50;5.43;;;;;;;6.27;66.66;100734.19;5166898;28;20924;-42
2021/12/07 03:57:45;;;;;;;20.00;5.65;;;;;;;6.27;66.50;100741.22;5169403;28;20424;-44
2021/12/07 04:00:22;;;;;;;21.55;5.45;;;;;;;6.24;66.49;100734.44;5171012;28;20415;-43
2021/12/07 04:02:56;;;;;;;27.75;6.60;;;;;;;6.24;66.43;100739.69;5172532;28;20513;-44
2021/12/07 04:05:28;;;;;;;25.63;5.20;;;;;;;6.23;66.20;100738.03;5170043;28;20416;-41
2021/12/07 04:08:01;;;;;;;24.23;5.78;;;;;;;6.22;66.47;100726.72;5167488;28;20421;-41
2021/12/07 04:10:33;;;;;;;19.58;5.47;;;;;;;6.23;66.41;100727.53;5181059;28;22009;-42
2021/12/07 04:13:07;;;;;;;19.50;4.63;;;;;;;6.22;66.46;100733.72;5176175;28;20754;-42
2021/12/07 04:15:40;;;;;;;31.30;5.22;;;;;;;6.22;66.39;100741.59;5183246;28;20421;-42
2021/12/07 04:18:13;;;;;;;19.00;5.05;;;;;;;6.22;66.36;100746.84;5173253;28;20973;-42
2021/12/07 04:20:46;;;;;;;18.73;5.15;;;;;;;6.22;66.56;100754.69;5166734;28;20907;-47
2021/12/07 04:23:18;;;;;;;21.48;5.50;;;;;;;6.25;66.54;100751.81;5184542;28;20426;-42
2021/12/07 04:25:51;;;;;;;18.70;5.47;;;;;;;6.32;66.52;100757.41;5176065;28;20428;-43
2021/12/07 04:28:25;;;;;;;15.02;4.47;;;;;;;6.31;66.56;100740.00;5179140;28;20431;-42
2021/12/07 04:30:57;;;;;;;16.98;4.45;;;;;;;6.41;66.62;100757.53;5180033;28;20411;-42
2021/12/07 04:33:30;;;;;;;17.17;4.72;;;;;;;6.42;66.34;100743.44;5180477;28;20524;-45
2021/12/07 04:36:04;;;;;;;19.20;5.45;;;;;;;6.41;66.42;100775.03;5176869;28;20829;-42
2021/12/07 04:38:38;;;;;;;10.57;4.43;;;;;;;6.37;66.33;100761.31;5179980;28;20541;-42
2021/12/07 04:41:11;;;;;;;8.93;3.37;;;;;;;6.05;66.31;100697.56;5174398;28;20410;-41
2021/12/07 04:43:48;;;;;;;11.07;3.53;;;;;;;6.32;66.31;100774.00;5171928;28;20459;-42
2021/12/07 04:46:28;;;;;;;15.80;4.20;;;;;;;6.29;66.20;100757.66;5180849;28;20418;-41
2021/12/07 04:57:51;;;;;;;11.73;4.25;;;;;;;6.14;66.21;100785.97;5146245;28;20426;-42
2021/12/07 05:00:29;;;;;;;16.00;4.32;;;;;;;6.26;66.31;100795.47;5175629;28;20437;-40
2021/12/07 05:03:05;;;;;;;18.80;4.60;;;;;;;6.29;66.29;100784.75;5174660;28;20935;-45
2021/12/07 05:05:44;;;;;;;13.05;3.83;;;;;;;6.36;66.26;100785.06;5181380;28;20414;-45
2021/12/07 05:08:28;;;;;;;14.93;4.85;;;;;;;6.31;66.19;100803.78;5173959;28;20532;-42
2021/12/07 05:11:25;;;;;;;14.98;4.40;;;;;;;6.44;66.21;100814.97;5178810;28;20789;-41
2021/12/07 05:14:11;;;;;;;10.52;4.68;;;;;;;6.47;66.30;100799.00;5174859;28;20409;-43
2021/12/07 05:16:59;;;;;;;8.25;3.08;;;;;;;6.41;66.30;100802.13;5178146;28;20449;-42
2021/12/07 05:39:38;;;;;;;20.73;5.18;;;;;;;6.31;66.00;100844.94;5179247;28;20399;-40
2021/12/07 05:42:12;;;;;;;19.95;5.13;;;;;;;6.31;65.88;100840.50;5183881;28;20763;-42
2021/12/07 05:44:44;;;;;;;19.08;5.45;;;;;;;6.31;65.92;100843.13;5172613;28;20491;-45
2021/12/07 05:47:16;;;;;;;30.85;5.57;;;;;;;6.29;66.15;100842.44;5179220;28;20732;-44
2021/12/07 05:49:50;;;;;;;12.85;4.45;;;;;;;6.34;65.99;100834.19;5180839;28;20486;-41
2021/12/07 05:52:23;;;;;;;17.42;4.88;;;;;;;6.33;66.09;100843.84;5180822;28;20421;-41
2021/12/07 05:54:55;;;;;;;31.60;5.68;;;;;;;6.33;66.11;100849.09;5173011;28;20515;-41
2021/12/07 05:57:27;;;;;;;19.95;5.13;;;;;;;6.24;66.01;100840.16;5171605;28;23817;-42
2021/12/07 06:00:00;;;;;;;27.67;5.90;;;;;;;6.33;66.03;100843.84;5179562;28;20429;-43
2021/12/07 06:02:32;;;;;;;19.58;4.80;;;;;;;6.35;66.12;100846.34;5188512;28;20950;-42
2021/12/07 06:05:08;;;;;;;23.58;4.97;;;;;;;6.36;66.14;100848.84;5185751;28;20423;-40
2021/12/07 06:07:40;;;;;;;24.55;5.13;;;;;;;6.31;66.09;100835.25;5187704;28;20433;-42
2021/12/07 06:10:12;;;;;;;26.23;5.75;;;;;;;6.37;66.07;100850.50;5178649;28;20497;-42
2021/12/07 06:12:44;;;;;;;23.97;5.37;;;;;;;6.31;65.89;100843.13;5173308;28;20430;-49
2021/12/07 06:15:20;;;;;;;23.00;5.30;;;;;;;6.34;66.02;100850.75;5179169;28;20608;-42
2021/12/07 06:17:54;;;;;;;24.83;5.78;;;;;;;6.31;66.11;100835.25;5165725;28;20423;-41
2021/12/07 06:20:28;;;;;;;25.65;6.38;;;;;;;6.30;65.94;100838.03;5186176;28;20514;-40
2021/12/07 06:23:01;;;;;;;24.60;6.20;;;;;;;6.28;66.03;100840.75;5172983;28;20414;-40
2021/12/07 06:25:33;;;;;;;16.67;4.67;;;;;;;6.24;66.06;100840.16;5181685;28;20710;-41
2021/12/07 06:28:06;;;;;;;24.23;5.78;;;;;;;6.25;66.01;100841.00;5185641;28;20500;-41
2021/12/07 06:30:39;;;;;;;18.75;5.15;;;;;;;6.19;66.05;100829.22;5188749;28;20413;-41
2021/12/07 06:33:12;;;;;;;32.08;6.53;;;;;;;6.22;66.08;100831.59;5178505;28;20934;-44
2021/12/07 06:35:47;;;;;;;22.15;5.18;;;;;;;6.30;66.01;100841.47;5181629;28;20400;-43
2021/12/07 06:38:20;;;;;;;25.60;6.32;;;;;;;6.33;65.88;100843.84;5179855;28;20427;-42
2021/12/07 06:40:52;;;;;;;20.50;6.38;;;;;;;6.35;66.04;100848.97;5185436;28;20419;-43
2021/12/07 06:43:24;;;;;;;26.98;6.18;;;;;;;6.32;66.09;100852.69;5181416;28;20434;-41
2021/12/07 06:45:57;;;;;;;28.27;7.20;;;;;;;6.29;65.92;100858.19;5184600;28;20492;-45
2021/12/07 06:48:30;;;;;;;22.60;6.10;;;;;;;6.26;66.20;100857.59;5185903;28;20415;-47
2021/12/07 06:51:04;;;;;;;20.00;5.45;;;;;;;5.97;65.82;100816.94;5176453;28;20425;-44
2021/12/07 06:53:37;;;;;;;24.55;6.40;;;;;;;6.17;65.96;100857.34;5179625;28;20411;-43
2021/12/07 06:56:11;;;;;;;20.48;6.00;;;;;;;6.07;65.82;100845.06;5174870;28;20472;-43
2021/12/07 06:58:43;;;;;;;29.90;8.20;;;;;;;6.08;65.85;100850.22;5181792;28;20425;-43
2021/12/07 07:01:16;;;;;;;27.92;7.30;;;;;;;6.06;66.16;100856.53;5168281;28;20440;-45
2021/12/07 07:03:48;;;;;;;29.73;6.13;;;;;;;6.00;65.90;100861.28;5175355;28;20785;-43
2021/12/07 07:06:22;;;;;;;18.92;6.15;;;;;;;5.96;65.95;100859.84;5177357;28;20430;-41
2021/12/07 07:09:25;;;;;;;26.40;6.97;;;;;;;5.92;65.86;100861.03;5153657;28;20433;-43
2021/12/07 07:11:58;;;;;;;26.85;6.82;;;;;;;5.89;65.82;100866.50;5176823;28;20467;-46
2021/12/07 07:14:30;;;;;;;27.75;7.47;;;;;;;5.84;65.86;100868.63;5165626;28;20439;-41
2021/12/07 07:17:03;;;;;;;24.73;7.05;;;;;;;5.80;65.95;100869.84;5159896;28;20525;-42
2021/12/07 07:19:35;;;;;;;27.15;7.13;;;;;;;5.78;65.96;100871.72;5176775;28;20398;-43
2021/12/07 07:22:09;;;;;;;25.60;6.55;;;;;;;5.75;65.96;100871.97;5176807;28;20435;-43
2021/12/07 07:24:43;;;;;;;27.03;6.40;;;;;;;5.72;65.97;100874.81;5180277;28;20521;-42
2021/12/07 07:27:15;;;;;;;21.60;5.82;;;;;;;5.71;65.96;100862.69;5156001;28;20425;-45
2021/12/07 07:29:47;;;;;;;23.60;6.57;;;;;;;5.55;65.96;100842.06;5177438;28;20422;-41
2021/12/07 07:32:20;;;;;;;25.00;6.53;;;;;;;5.66;65.88;100860.41;5179572;28;20416;-42
2021/12/07 07:34:52;;;;;;;21.05;6.60;;;;;;;5.65;65.88;100863.16;5170972;28;20433;-45
2021/12/07 07:37:26;;;;;;;24.25;6.15;;;;;;;5.64;66.01;100858.88;5172832;28;20787;-41
2021/12/07 07:39:58;;;;;;;21.52;6.55;;;;;;;5.61;66.00;100846.00;5169488;28;20758;-43
2021/12/07 07:42:31;;;;;;;25.83;6.43;;;;;;;5.62;66.14;100842.44;5174297;28;20431;-42
2021/12/07 07:45:05;;;;;;;18.90;6.88;;;;;;;5.62;66.12;100845.03;5174820;28;20417;-44
2021/12/07 07:47:37;;;;;;;28.48;6.50;;;;;;;5.63;66.13;100847.53;5177082;28;20415;-41
2021/12/07 07:50:13;;;;;;;23.55;6.85;;;;;;;5.65;65.79;100852.66;5168246;28;20423;-44
2021/12/07 07:52:47;;;;;;;24.90;8.82;;;;;;;5.65;65.92;100842.19;5175395;28;20899;-45
2021/12/07 07:55:56;;;;;;;19.23;8.70;;;;;;;5.67;65.98;100841.13;5178867;28;20897;-43
2021/12/07 07:58:28;;;;;;;28.15;7.55;;;;;;;5.69;65.94;100848.84;5175211;28;20622;-43
2021/12/07 08:01:01;;;;;;;25.67;7.10;;;;;;;5.69;65.95;100838.38;5173125;28;20455;-44
2021/12/07 08:03:35;;;;;;;23.95;6.85;;;;;;;5.74;65.95;100846.72;5180744;28;20925;-42
2021/12/07 08:06:07;;;;;;;22.58;6.55;;;;;;;5.77;65.93;100846.50;5175140;28;20934;-44
2021/12/07 08:08:41;;;;;;;23.42;6.70;;;;;;;5.80;65.70;100841.00;5172681;28;20427;-43
2021/12/07 08:11:14;;;;;;;23.40;6.55;;;;;;;5.85;66.02;100851.13;5180502;28;20473;-42
2021/12/07 08:13:46;;;;;;;21.60;7.22;;;;;;;5.88;65.97;100849.09;5173445;28;20419;-45
2021/12/07 08:16:19;;;;;;;30.75;7.63;;;;;;;5.92;65.85;100860.19;5183044;28;20905;-43
2021/12/07 08:18:53;;;;;;;26.42;7.30;;;;;;;5.95;65.86;100863.44;5185002;28;20854;-45
2021/12/07 08:21:26;;;;;;;21.13;6.97;;;;;;;5.98;65.93;100859.75;5179546;28;20414;-44
2021/12/07 08:23:59;;;;;;;29.63;7.60;;;;;;;6.02;65.74;100855.09;5168807;28;20427;-46
2021/12/07 08:26:33;;;;;;;25.90;8.52;;;;;;;6.04;65.92;100858.41;5178159;28;20437;-41
2021/12/07 08:29:05;;;;;;;32.67;7.53;;;;;;;6.01;65.89;100859.50;5177789;28;20399;-42
2021/12/07 08:31:38;;;;;;;24.20;8.75;;;;;;;6.11;66.22;100859.63;5170410;28;21101;-43
2021/12/07 08:34:10;;;;;;;26.83;9.45;;;;;;;5.96;65.91;100824.94;5176017;28;20419;-42
2021/12/07 08:36:43;;;;;;;34.28;9.05;;;;;;;6.22;66.08;100854.34;5176139;28;20517;-43
2021/12/07 08:39:16;;;;;;;21.27;7.43;;;;;;;6.21;66.05;100844.81;5178619;28;20423;-46
2021/12/07 08:41:49;;;;;;;28.05;8.55;;;;;;;6.32;66.18;100851.81;5172417;28;21032;-42
2021/12/07 08:44:23;;;;;;;20.48;6.68;;;;;;;6.37;65.89;100849.69;5173175;28;21536;-42
2021/12/07 08:46:56;;;;;;;25.45;6.25;;;;;;;6.43;65.88;100854.44;5179326;28;20452;-43
2021/12/07 08:49:28;;;;;;;26.37;7.07;;;;;;;6.45;66.01;100858.63;5180375;28;20512;-40
2021/12/07 08:52:01;;;;;;;21.55;7.20;;;;;;;6.51;65.99;100845.97;5169990;28;20516;-43
2021/12/07 08:59:37;;;;;;;27.05;7.13;;;;;;;6.49;65.90;100850.50;5183428;28;20933;-42
2021/12/07 09:00:18;;;;;;;24.10;7.28;;;;;;;6.60;65.81;100860.97;5173431;28;20838;-42
2021/12/07 09:02:50;;;;;;;24.33;6.30;;;;;;;6.61;65.95;100857.38;5169900;28;20439;-41
2021/12/07 09:05:24;;;;;;;23.17;7.00;;;;;;;6.58;66.04;100850.59;5175362;28;21002;-41
2021/12/07 09:07:56;;;;;;;25.40;7.40;;;;;;;6.57;65.84;100855.97;5180276;28;20926;-42
2021/12/07 09:10:30;;;;;;;24.67;7.57;;;;;;;6.57;65.81;100855.97;5169764;28;20519;-45
2021/12/07 09:13:02;;;;;;;20.02;7.00;;;;;;;6.55;65.93;100850.84;5175302;28;20428;-43
2021/12/07 09:15:34;;;;;;;24.00;7.18;;;;;;;6.51;65.98;100851.22;5175516;28;20410;-42
2021/12/07 09:18:07;;;;;;;19.88;5.35;;;;;;;6.50;66.02;100844.28;5162577;28;20415;-43
2021/12/07 09:20:40;;;;;;;19.52;7.45;;;;;;;6.47;66.07;100851.47;5181081;28;20408;-42
2021/12/07 09:23:12;;;;;;;24.77;8.25;;;;;;;6.49;65.99;100855.75;5174394;28;20430;-42
2021/12/07 09:25:47;;;;;;;21.67;8.00;;;;;;;6.50;66.02;100860.84;5169630;28;20496;-43
2021/12/07 09:28:19;;;;;;;22.10;7.97;;;;;;;6.49;66.08;100864.44;5175286;28;20429;-45
2021/12/07 09:30:52;;;;;;;28.65;9.52;;;;;;;6.37;66.01;100850.50;5175234;28;20414;-42
2021/12/07 09:33:28;;;;;;;23.20;7.47;;;;;;;6.46;66.04;100860.28;5178129;28;20423;-42
2021/12/07 09:36:01;;;;;;;27.57;8.30;;;;;;;6.60;65.83;100872.31;5174994;28;20948;-43
2021/12/07 09:38:34;;;;;;;25.45;6.55;;;;;;;6.64;65.99;100870.25;5178863;28;20444;-43
2021/12/07 09:41:10;;;;;;;19.25;7.22;;;;;;;6.68;65.98;100866.41;5178980;28;20555;-44
2021/12/07 09:43:43;;;;;;;27.23;7.00;;;;;;;6.73;65.87;100872.16;5175733;28;20572;-44
2021/12/07 09:46:17;;;;;;;30.05;7.28;;;;;;;6.77;65.81;100889.31;5171740;28;20419;-45
2021/12/07 09:48:50;;;;;;;29.70;7.23;;;;;;;6.51;65.77;100845.97;5178948;28;20474;-46
2021/12/07 09:51:26;;;;;;;24.83;7.93;;;;;;;6.85;65.69;100879.03;5174235;28;20577;-42
2021/12/07 09:53:59;;;;;;;19.13;6.50;;;;;;;6.85;65.80;100892.16;5178547;28;20970;-44
2021/12/07 09:56:33;;;;;;;26.35;7.00;;;;;;;6.88;65.75;100886.66;5179951;28;20563;-41
2021/12/07 09:59:09;;;;;;;22.90;6.88;;;;;;;6.84;65.71;100885.22;5177551;28;20875;-45
2021/12/07 10:01:43;;;;;;;22.05;7.50;;;;;;;6.92;65.74;100889.84;5171821;28;20519;-44
2021/12/07 10:04:15;;;;;;;23.30;6.90;;;;;;;6.88;65.87;100889.28;5171656;28;20416;-50
2021/12/07 10:06:47;;;;;;;17.88;6.50;;;;;;;6.87;65.82;100887.59;5174952;28;20434;-43
2021/12/07 10:09:20;;;;;;;34.15;7.05;;;;;;;6.92;65.76;100882.81;5183209;28;20435;-50
2021/12/07 10:11:55;;;;;;;18.80;5.88;;;;;;;7.01;65.95;100886.47;5173477;28;20428;-42
2021/12/07 10:14:38;;;;;;;23.52;7.70;;;;;;;7.11;65.69;100871.63;5183482;28;20774;-43
2021/12/07 10:17:11;;;;;;;21.13;6.65;;;;;;;7.20;65.71;100863.97;5178123;28;20410;-43
2021/12/07 10:19:45;;;;;;;18.55;5.97;;;;;;;7.22;65.58;100860.25;5176095;28;20907;-45
2021/12/07 10:22:21;;;;;;;20.67;6.60;;;;;;;7.27;65.46;100859.84;5184217;28;20517;-44
2021/12/07 10:24:58;;;;;;;16.15;6.90;;;;;;;7.27;65.43;100842.28;5177363;28;21164;-42
2021/12/07 10:27:42;;;;;;;19.53;6.83;;;;;;;7.47;65.37;100860.81;5179713;28;20508;-42
2021/12/07 10:30:20;;;;;;;16.27;6.00;;;;;;;7.51;65.39;100851.72;5176722;28;20803;-40
2021/12/07 10:33:06;;;;;;;17.35;5.47;;;;;;;7.54;65.26;100851.47;5179113;28;20905;-43
2021/12/07 10:35:39;;;;;;;14.88;5.78;;;;;;;7.45;65.16;100818.91;5174779;28;20545;-45
2021/12/07 10:38:15;;;;;;;13.30;6.30;;;;;;;7.66;65.21;100855.66;5181885;28;20427;-46
2021/12/07 10:40:58;;;;;;;23.83;6.60;;;;;;;7.69;65.10;100837.00;5172713;28;20532;-43
2021/12/07 10:43:56;;;;;;;18.85;6.05;;;;;;;7.79;65.10;100837.88;5184453;28;20802;-45
2021/12/07 10:46:45;;;;;;;19.48;5.65;;;;;;;7.56;65.23;100781.22;5177469;28;20538;-43
2021/12/07 10:49:33;;;;;;;19.70;5.28;;;;;;;7.81;65.23;100809.66;5167851;28;20423;-45
2021/12/07 10:52:22;;;;;;;24.48;5.30;;;;;;;7.88;64.98;100815.22;5178196;28;20428;-42
2021/12/07 10:55:04;;;;;;;17.00;5.32;;;;;;;7.88;65.15;100817.03;5168155;28;20450;-43
2021/12/07 10:57:40;;;;;;;26.48;6.07;;;;;;;7.87;65.02;100808.31;5176093;28;20491;-43
2021/12/07 11:00:51;;;;;;;16.95;5.32;;;;;;;7.93;64.98;100796.41;5180673;28;20903;-46
2021/12/07 11:03:25;;;;;;;20.10;5.80;;;;;;;7.94;65.01;100790.19;5166316;28;20451;-43
2021/12/07 11:05:57;;;;;;;18.35;6.20;;;;;;;7.96;65.00;100790.88;5174090;28;21189;-46
2021/12/07 11:08:33;;;;;;;23.42;6.47;;;;;;;8.00;64.91;100789.66;5169196;28;20444;-46
2021/12/07 11:11:05;;;;;;;14.20;4.80;;;;;;;8.07;64.88;100782.88;5176877;28;20416;-43
2021/12/07 11:13:39;;;;;;;19.20;5.43;;;;;;;8.12;64.74;100785.97;5168950;28;20522;-47
2021/12/07 11:16:15;;;;;;;23.23;6.47;;;;;;;8.16;64.50;100784.72;5179216;28;20434;-46
2021/12/07 11:18:49;;;;;;;18.13;4.75;;;;;;;8.22;64.46;100778.91;5181170;28;20413;-43
2021/12/07 11:21:23;;;;;;;17.90;5.97;;;;;;;8.27;64.43;100779.34;5176088;28;20515;-45
2021/12/07 11:23:58;;;;;;;17.27;5.32;;;;;;;8.22;64.26;100763.13;5175023;28;20517;-45
2021/12/07 11:29:42;;;;;;;20.13;5.20;;;;;;;8.34;64.20;100776.16;5108733;28;20999;-47
2021/12/07 11:32:15;;;;;;;18.67;5.97;;;;;;;8.32;64.29;100758.69;5172965;28;20455;-48
2021/12/07 11:34:48;;;;;;;18.88;5.82;;;;;;;8.39;64.14;100759.00;5170579;28;20903;-43
2021/12/07 11:37:22;;;;;;;18.98;5.63;;;;;;;8.40;63.95;100759.88;5178564;28;20464;-41
2021/12/07 11:39:56;;;;;;;18.90;5.75;;;;;;;8.28;63.92;100748.59;5171703;28;20464;-46
2021/12/07 11:42:34;;;;;;;18.73;6.13;;;;;;;8.03;63.98;100707.88;5176544;28;20419;-42
2021/12/07 11:45:12;;;;;;;23.45;5.72;;;;;;;8.30;64.12;100741.41;5182212;28;20886;-41
2021/12/07 11:47:50;;;;;;;14.98;5.32;;;;;;;8.31;63.94;100725.47;5173647;28;20502;-43
2021/12/07 11:50:31;;;;;;;26.17;5.03;;;;;;;8.36;63.69;100732.09;5171204;28;20430;-43
2021/12/07 11:53:07;;;;;;;13.47;4.37;;;;;;;8.28;63.63;100694.16;5162514;28;20437;-43
2021/12/07 11:55:43;;;;;;;14.35;4.40;;;;;;;8.44;63.66;100724.41;5174885;28;20963;-44
2021/12/07 11:58:18;;;;;;;14.20;5.07;;;;;;;8.44;63.48;100730.50;5171086;28;20498;-53
2021/12/07 12:00:53;;;;;;;22.23;5.87;;;;;;;8.37;63.54;100718.00;5170539;28;20772;-44
2021/12/07 12:03:28;;;;;;;18.83;5.72;;;;;;;8.33;63.58;100709.56;5169175;28;20433;-44
2021/12/07 12:06:00;;;;;;;17.20;5.50;;;;;;;8.29;63.74;100700.25;5175682;28;21087;-43
2021/12/07 12:08:33;;;;;;;19.50;7.00;;;;;;;8.23;63.66;100693.75;5175149;28;20791;-42
2021/12/07 12:11:15;;;;;;;16.48;5.47;;;;;;;8.17;63.55;100696.94;5166090;28;20636;-45
2021/12/07 12:14:00;;;;;;;26.35;7.20;;;;;;;8.11;63.54;100684.31;5167772;28;20429;-46
2021/12/07 12:16:42;;;;;;;26.20;7.50;;;;;;;8.05;63.54;100671.72;5172227;28;20523;-43
2021/12/07 12:19:29;;;;;;;29.42;7.93;;;;;;;8.03;63.42;100663.16;5178906;28;20894;-45
2021/12/07 12:22:10;;;;;;;24.47;6.97;;;;;;;8.10;63.21;100653.72;5146136;28;20528;-48
2021/12/07 12:24:50;;;;;;;23.63;7.55;;;;;;;8.13;63.02;100652.63;5152681;28;20891;-44
2021/12/07 12:27:27;;;;;;;18.23;6.82;;;;;;;8.04;63.15;100654.28;5153092;28;20524;-45
2021/12/07 12:30:02;;;;;;;20.33;7.18;;;;;;;8.00;62.99;100652.91;5158212;28;20436;-45
2021/12/07 12:32:38;;;;;;;33.88;9.23;;;;;;;7.98;63.12;100644.31;5144017;28;20718;-43
2021/12/07 12:35:15;;;;;;;28.25;8.00;;;;;;;8.01;63.00;100649.31;5142770;28;20826;-42
2021/12/07 12:37:50;;;;;;;26.30;7.53;;;;;;;7.99;63.02;100635.44;5148139;28;20416;-45
2021/12/07 12:40:25;;;;;;;26.10;9.02;;;;;;;7.45;62.69;100556.16;5147504;28;20771;-47
2021/12/07 12:42:59;;;;;;;24.95;8.70;;;;;;;7.93;63.02;100636.84;5154645;28;20425;-43
2021/12/07 12:45:37;;;;;;;28.10;8.60;;;;;;;7.93;62.89;100636.00;5150947;28;20505;-45
2021/12/07 12:48:12;;;;;;;27.00;8.02;;;;;;;7.91;62.91;100627.44;5151971;28;20848;-46
2021/12/07 12:50:51;;;;;;;26.25;8.07;;;;;;;7.88;62.79;100625.09;5148817;28;20437;-41
2021/12/07 12:53:26;;;;;;;22.17;7.57;;;;;;;7.80;63.03;100610.84;5158681;28;20444;-42
2021/12/07 12:56:00;;;;;;;28.80;8.55;;;;;;;7.76;62.96;100606.81;5142654;28;20430;-46
2021/12/07 12:58:43;;;;;;;29.00;10.73;;;;;;;7.72;63.00;100600.16;5160112;28;20428;-45
2021/12/07 13:01:24;;;;;;;27.73;8.55;;;;;;;7.69;62.82;100591.72;5151905;28;20502;-50
2021/12/07 13:04:05;;;;;;;33.20;10.02;;;;;;;7.65;62.87;100591.19;5156664;28;20431;-46
2021/12/07 13:07:04;;;;;;;30.30;9.80;;;;;;;7.64;62.85;100586.88;5154214;28;20443;-46
2021/12/07 13:09:44;;;;;;;31.55;10.02;;;;;;;7.63;62.92;100577.31;5165042;28;20520;-42
2021/12/07 13:12:20;;;;;;;29.75;11.07;;;;;;;7.50;62.84;100550.50;5151213;28;20809;-44
2021/12/07 13:15:00;;;;;;;29.87;9.73;;;;;;;7.65;62.63;100567.53;5160990;28;20435;-45
2021/12/07 13:17:39;;;;;;;28.13;10.13;;;;;;;7.65;62.66;100557.00;5162477;28;20420;-42
2021/12/07 13:20:30;;;;;;;29.70;9.77;;;;;;;7.59;62.73;100549.66;5159206;28;20423;-44
2021/12/07 13:23:09;;;;;;;37.42;10.93;;;;;;;7.49;62.66;100535.66;5155518;28;20420;-53